Almond, New York
Current Conditions -  °F | °C
As of 8:54 PM on Friday 28 Nov 2014 (Local Time) from KDSV Reporting Station
Overcast Overcast  
Wind Chill: -8°   Ceiling: 4500
Heat Index: -4°   Visibility: 10mi
Dew Point: -9°   Wind: 5mph
Humidity: 69%   Direction: 120°ESE
Pressure: 30.21"   Gusts: NA
Location:  42.32°N, 77.74°W
Report Text: KDSV 290154Z AUTO 12004KT 10SM OVC045 M04/M09 A3021 RMK AO2 SLP248 T10441094
Loading
Personal Weather Stations






























Interactive Weather Map New forecast layout! Learn more

10-Day Weather Forecast

Advertisements
Track Severe Weather on mobile